Time;durP1;ratioP1;P1;durP2;ratioP2;P2;SDS_P1;SDS_P2;PMS_P1;PMS_P2;Temp;Humidity;BMP_temperature;BMP_pressure;BME280_temperature;BME280_humidity;BME280_pressure;Samples;Min_cycle;Max_cycle;Signal;HPM_P1;HPM_P2
2022/12/17 13:06:51;;;;;;;60.50;42.40;;;0.70;99.90;;;;;;5116008;28;20797;-85
2022/12/17 13:09:17;;;;;;;61.90;41.28;;;0.70;99.90;;;;;;5137946;27;20462;-82
2022/12/17 13:11:59;;;;;;;61.40;41.97;;;0.90;99.90;;;;;;5110689;27;20854;-85
2022/12/17 13:14:30;;;;;;;58.65;42.92;;;0.80;99.90;;;;;;5108916;27;20428;-82
2022/12/17 13:17:28;;;;;;;62.58;43.20;;;0.80;99.90;;;;;;5140553;27;20425;-84
2022/12/17 13:19:56;;;;;;;62.10;44.00;;;1.00;99.90;;;;;;5118892;28;20490;-81
2022/12/17 13:22:22;;;;;;;61.33;43.40;;;1.00;99.90;;;;;;5113533;28;20736;-83
2022/12/17 13:24:50;;;;;;;63.70;45.70;;;0.90;99.90;;;;;;5117471;28;20411;-81
2022/12/17 13:27:29;;;;;;;61.80;44.28;;;1.00;99.90;;;;;;5126558;27;20422;-80
2022/12/17 13:29:54;;;;;;;60.73;44.03;;;1.00;99.90;;;;;;5121818;27;20431;-77
2022/12/17 13:32:27;;;;;;;60.70;43.47;;;1.00;99.90;;;;;;5119058;27;20419;-81
2022/12/17 13:35:16;;;;;;;61.08;42.85;;;0.90;99.90;;;;;;5122594;27;20473;-83
2022/12/17 13:38:07;;;;;;;57.77;42.77;;;0.90;99.90;;;;;;5118447;28;20504;-80
2022/12/17 13:40:39;;;;;;;58.08;42.33;;;1.00;99.90;;;;;;5103927;28;20437;-77
2022/12/17 13:43:22;;;;;;;62.38;44.58;;;0.90;99.90;;;;;;5105883;28;20405;-79
2022/12/17 13:45:50;;;;;;;61.67;44.47;;;0.80;99.90;;;;;;5113533;27;20769;-78
2022/12/17 13:48:22;;;;;;;64.43;43.65;;;0.90;99.90;;;;;;5119614;27;20421;-80
2022/12/17 13:50:59;;;;;;;68.00;47.30;;;0.90;99.90;;;;;;5118430;27;20425;-76
2022/12/17 13:53:26;;;;;;;67.00;47.35;;;0.90;99.90;;;;;;5119843;27;20422;-81
2022/12/17 13:55:54;;;;;;;63.13;42.90;;;0.70;99.90;;;;;;5094620;28;20543;-80
2022/12/17 13:58:31;;;;;;;67.57;45.50;;;0.70;99.90;;;;;;5098199;28;20420;-81
2022/12/17 14:01:11;;;;;;;68.63;48.40;;;1.40;99.90;;;;;;5114429;28;20435;-80
2022/12/17 14:03:36;;;;;;;70.68;49.05;;;0.70;99.90;;;;;;5114809;28;20746;-82
2022/12/17 14:06:04;;;;;;;65.70;47.03;;;0.80;99.90;;;;;;5112383;28;20396;-84
2022/12/17 14:08:31;;;;;;;69.03;48.17;;;0.70;99.90;;;;;;5112712;28;20415;-81
2022/12/17 14:13:44;;;;;;;66.53;48.25;;;0.50;99.90;;;;;;5111230;28;20518;-82
2022/12/17 14:16:18;;;;;;;70.77;49.13;;;0.50;99.90;;;;;;5112705;28;20405;-82
2022/12/17 14:18:48;;;;;;;66.97;46.50;;;0.40;99.90;;;;;;5112333;28;20401;-84
2022/12/17 14:21:14;;;;;;;74.85;51.10;;;0.40;99.90;;;;;;5112077;28;20431;-84
2022/12/17 14:23:40;;;;;;;67.07;46.88;;;0.60;99.90;;;;;;5113040;28;20480;-82
2022/12/17 14:26:11;;;;;;;72.13;49.92;;;0.20;99.90;;;;;;5115823;28;20828;-83
2022/12/17 14:28:48;;;;;;;65.55;47.72;;;0.20;99.90;;;;;;5105397;28;20398;-83
2022/12/17 14:31:17;;;;;;;71.47;48.37;;;0.30;99.90;;;;;;5094768;28;20446;-80
2022/12/17 14:33:43;;;;;;;70.65;49.05;;;0.10;99.90;;;;;;5097536;28;20438;-82
2022/12/17 14:36:15;;;;;;;73.75;49.95;;;0.10;99.90;;;;;;5094891;28;20429;-84
2022/12/17 14:38:56;;;;;;;78.57;51.70;;;0.20;99.90;;;;;;5091222;28;20401;-80
2022/12/17 14:44:20;;;;;;;76.03;51.47;;;-0.10;99.90;;;;;;5104581;27;20440;-84
2022/12/17 14:46:47;;;;;;;80.15;53.85;;;-0.10;99.90;;;;;;5114083;27;20395;-84
2022/12/17 14:49:18;;;;;;;80.07;53.53;;;-0.10;99.90;;;;;;5132663;27;20798;-81
2022/12/17 14:51:45;;;;;;;79.07;51.60;;;-0.10;99.90;;;;;;5112696;27;20415;-81
2022/12/17 14:54:30;;;;;;;78.68;53.95;;;0.00;99.90;;;;;;5132013;27;20395;-84
2022/12/17 14:56:57;;;;;;;76.43;52.60;;;-0.20;99.90;;;;;;5119770;27;20989;-85
2022/12/17 14:59:33;;;;;;;75.30;52.53;;;-0.20;99.90;;;;;;5092132;28;20536;-82
2022/12/17 15:02:25;;;;;;;73.45;52.40;;;-0.30;99.90;;;;;;5091681;28;20497;-83
2022/12/17 15:05:00;;;;;;;74.63;50.65;;;-0.40;99.90;;;;;;5090413;28;20412;-83
2022/12/17 15:07:27;;;;;;;76.75;52.20;;;0.20;99.90;;;;;;5099363;28;20424;-84
2022/12/17 15:09:57;;;;;;;77.80;53.80;;;-0.30;99.90;;;;;;5110651;28;20392;-82
2022/12/17 15:12:24;;;;;;;83.13;56.15;;;-0.50;99.90;;;;;;5109219;28;20757;-79
2022/12/17 15:14:50;;;;;;;83.75;58.53;;;-0.50;99.90;;;;;;5094798;28;20414;-84
2022/12/17 15:17:16;;;;;;;74.55;54.22;;;-0.50;99.90;;;;;;5095886;28;20419;-80
2022/12/17 15:19:42;;;;;;;75.60;51.00;;;-0.50;99.90;;;;;;5100305;27;20495;-81
2022/12/17 15:22:17;;;;;;;74.63;51.35;;;-0.50;99.90;;;;;;5092194;27;20893;-82
2022/12/17 15:24:43;;;;;;;78.88;54.08;;;-0.60;99.90;;;;;;5092723;28;20434;-82
2022/12/17 15:27:16;;;;;;;78.43;51.00;;;-0.60;99.90;;;;;;5092928;28;20418;-83
2022/12/17 15:29:42;;;;;;;81.90;55.33;;;-0.30;99.90;;;;;;5093413;28;20606;-81
2022/12/17 15:32:18;;;;;;;90.72;59.38;;;-0.70;99.90;;;;;;5100813;28;20443;-85
2022/12/17 15:34:45;;;;;;;89.63;57.47;;;-0.70;99.90;;;;;;5074513;28;20458;-81
2022/12/17 15:37:10;;;;;;;92.20;59.95;;;-0.70;99.90;;;;;;5087636;28;20409;-83
2022/12/17 15:39:36;;;;;;;91.90;61.50;;;-0.90;99.90;;;;;;5071091;28;20406;-81
2022/12/17 15:44:46;;;;;;;94.18;60.65;;;-0.80;99.90;;;;;;5075275;28;20873;-78
2022/12/17 15:47:11;;;;;;;82.67;53.47;;;-0.80;99.90;;;;;;5089151;28;20410;-83
2022/12/17 15:49:37;;;;;;;79.57;52.23;;;-0.80;99.90;;;;;;5088916;28;20421;-83
2022/12/17 15:52:03;;;;;;;74.83;51.43;;;-1.00;99.90;;;;;;5087819;28;20780;-81
2022/12/17 15:54:28;;;;;;;80.20;52.00;;;-0.90;99.90;;;;;;5089296;28;20422;-81
2022/12/17 15:56:54;;;;;;;80.03;52.70;;;-0.90;99.90;;;;;;5070316;28;20571;-82
2022/12/17 15:59:21;;;;;;;76.32;48.38;;;-1.00;99.90;;;;;;5095849;27;20456;-81
2022/12/17 16:01:46;;;;;;;79.28;50.65;;;-1.10;99.90;;;;;;5087197;28;20422;-83
2022/12/17 16:04:12;;;;;;;82.78;53.25;;;-0.70;99.90;;;;;;5086798;28;20452;-81
2022/12/17 16:06:38;;;;;;;82.33;57.07;;;-1.10;99.90;;;;;;5085499;28;20869;-81
2022/12/17 16:09:03;;;;;;;82.20;52.37;;;-1.10;99.90;;;;;;5071447;28;20425;-81
2022/12/17 16:11:29;;;;;;;80.47;52.07;;;-1.00;99.90;;;;;;5097132;28;20759;-81
2022/12/17 16:13:55;;;;;;;83.00;53.97;;;-1.20;99.90;;;;;;5108020;28;20419;-81
2022/12/17 16:16:22;;;;;;;80.72;53.60;;;-1.20;99.90;;;;;;5091080;28;20835;-78
2022/12/17 16:18:47;;;;;;;79.50;53.42;;;-1.20;99.90;;;;;;5107141;28;20407;-80
2022/12/17 16:21:13;;;;;;;78.27;49.87;;;-1.30;99.90;;;;;;5088088;28;20421;-78
2022/12/17 16:23:39;;;;;;;82.60;52.27;;;-0.80;99.90;;;;;;5096668;28;20413;-79
2022/12/17 16:26:07;;;;;;;76.53;50.07;;;-1.40;99.90;;;;;;5098551;28;20411;-79
2022/12/17 16:28:34;;;;;;;76.07;49.45;;;-1.20;99.90;;;;;;5108995;28;20424;-81
2022/12/17 16:31:06;;;;;;;78.83;50.90;;;-1.30;99.90;;;;;;5091412;28;20972;-84
2022/12/17 16:33:33;;;;;;;80.30;52.92;;;-1.40;99.90;;;;;;5098157;28;20490;-81
2022/12/17 16:35:59;;;;;;;79.60;50.63;;;-1.40;99.90;;;;;;5079969;28;20426;-80
2022/12/17 16:38:25;;;;;;;79.63;48.88;;;-1.40;99.90;;;;;;5069877;28;20430;-84
2022/12/17 16:40:55;;;;;;;78.40;49.13;;;-1.40;99.90;;;;;;5084662;28;20945;-81
2022/12/17 16:43:21;;;;;;;76.70;49.88;;;-1.40;99.90;;;;;;5110218;28;20414;-81
2022/12/17 16:45:48;;;;;;;80.72;50.95;;;-1.40;99.90;;;;;;5109165;28;20469;-81
2022/12/17 16:48:16;;;;;;;75.25;49.80;;;-1.30;99.90;;;;;;5108302;28;20445;-81
2022/12/17 16:50:42;;;;;;;79.63;49.83;;;-1.10;99.90;;;;;;5105873;28;20809;-85
2022/12/17 16:53:08;;;;;;;80.65;51.63;;;-1.40;99.90;;;;;;5109551;28;20463;-82
2022/12/17 16:55:43;;;;;;;96.40;54.87;;;-1.50;99.90;;;;;;5107281;28;20388;-82
2022/12/17 16:58:09;;;;;;;84.35;51.15;;;-1.50;99.90;;;;;;5086977;28;25084;-79
2022/12/17 17:00:35;;;;;;;86.73;54.90;;;-1.60;99.90;;;;;;5087442;28;20526;-84
2022/12/17 17:03:02;;;;;;;83.82;51.75;;;-1.00;99.90;;;;;;5071936;28;20461;-84
2022/12/17 17:05:31;;;;;;;92.72;56.67;;;-1.70;99.90;;;;;;5128187;28;20401;-76
2022/12/17 17:07:58;;;;;;;92.47;56.28;;;-1.70;99.90;;;;;;5080650;28;20439;-83
2022/12/17 17:10:24;;;;;;;83.75;53.92;;;-1.30;99.90;;;;;;5094784;28;20414;-84
2022/12/17 17:12:54;;;;;;;89.82;55.13;;;-1.80;99.90;;;;;;5133880;27;20400;-84
2022/12/17 17:15:21;;;;;;;87.40;53.45;;;-1.70;99.90;;;;;;5126324;28;20419;-82
2022/12/17 17:17:47;;;;;;;83.78;49.83;;;-1.60;99.90;;;;;;5113170;28;20471;-89
2022/12/17 17:20:13;;;;;;;83.20;50.80;;;-1.70;99.90;;;;;;5112780;28;20477;-86
2022/12/17 17:22:39;;;;;;;83.82;51.95;;;-1.70;99.90;;;;;;5113724;28;20456;-86
2022/12/17 17:25:05;;;;;;;79.15;49.42;;;-2.00;99.90;;;;;;5132421;28;20413;-82
2022/12/17 17:27:31;;;;;;;80.80;50.25;;;-1.90;99.90;;;;;;5124140;28;20416;-86
2022/12/17 17:29:57;;;;;;;82.40;50.50;;;-1.90;99.90;;;;;;5102383;27;20413;-86
2022/12/17 17:32:23;;;;;;;77.07;47.88;;;-1.80;99.90;;;;;;5094565;28;20406;-85
2022/12/17 17:34:50;;;;;;;77.65;48.53;;;-1.90;99.90;;;;;;5091406;28;20425;-86
2022/12/17 17:37:16;;;;;;;80.90;49.58;;;-1.80;99.90;;;;;;5093553;28;20406;-83
2022/12/17 17:39:41;;;;;;;82.07;49.63;;;-1.80;99.90;;;;;;5120532;27;20435;-89
2022/12/17 17:42:08;;;;;;;81.70;48.88;;;-1.90;99.90;;;;;;5113187;28;20431;-85
2022/12/17 17:44:34;;;;;;;84.45;49.13;;;-2.00;99.90;;;;;;5098445;28;20427;-86
2022/12/17 17:47:00;;;;;;;80.95;48.05;;;-1.90;99.90;;;;;;5112678;27;20785;-84
2022/12/17 17:49:26;;;;;;;80.18;49.95;;;-2.10;99.90;;;;;;5094666;28;20445;-86
2022/12/17 17:51:51;;;;;;;81.90;48.45;;;-2.10;99.90;;;;;;5076314;28;20412;-86
2022/12/17 17:54:17;;;;;;;83.07;48.83;;;-1.90;99.90;;;;;;5111855;28;20404;-86
2022/12/17 17:56:43;;;;;;;84.50;49.88;;;-2.10;99.90;;;;;;5077643;28;20412;-85
2022/12/17 17:59:14;;;;;;;83.63;49.67;;;-2.00;99.90;;;;;;5099868;28;20428;-84
2022/12/17 18:01:43;;;;;;;80.90;50.35;;;-2.00;99.90;;;;;;5092428;28;20479;-88
2022/12/17 18:04:12;;;;;;;80.18;48.03;;;-1.90;99.90;;;;;;5092629;28;20500;-86
2022/12/17 18:06:42;;;;;;;81.40;47.75;;;-2.10;99.90;;;;;;5090005;28;20396;-86
2022/12/17 18:09:09;;;;;;;80.72;47.45;;;-2.00;99.90;;;;;;5074185;28;20417;-86
2022/12/17 18:11:36;;;;;;;82.70;47.65;;;-2.10;99.90;;;;;;5108385;27;20495;-85
2022/12/17 18:14:04;;;;;;;81.97;49.90;;;-2.10;99.90;;;;;;5086191;28;20853;-85
2022/12/17 18:16:37;;;;;;;87.65;52.08;;;-2.10;99.90;;;;;;5102149;28;20432;-85
2022/12/17 18:19:05;;;;;;;83.93;47.47;;;-2.20;99.90;;;;;;5092259;28;20460;-87
2022/12/17 18:21:31;;;;;;;81.18;48.13;;;-0.80;99.90;;;;;;5090339;28;20534;-85
2022/12/17 18:24:00;;;;;;;83.97;51.25;;;-2.30;99.90;;;;;;5107588;28;20489;-88
2022/12/17 18:26:27;;;;;;;78.85;47.10;;;-2.10;99.90;;;;;;5074851;28;20443;-88
2022/12/17 18:28:53;;;;;;;83.23;47.37;;;-2.10;99.90;;;;;;5096438;28;20787;-85
2022/12/17 18:31:25;;;;;;;82.90;48.08;;;-1.60;99.90;;;;;;5086906;28;20429;-85
2022/12/17 18:33:54;;;;;;;80.35;48.95;;;-2.10;99.90;;;;;;5095340;28;20435;-85
2022/12/17 18:36:23;;;;;;;84.47;50.20;;;-2.20;99.90;;;;;;5103871;28;20501;-87
2022/12/17 18:39:01;;;;;;;91.13;51.30;;;-2.30;99.90;;;;;;5078474;28;20968;-87
2022/12/17 18:44:12;;;;;;;83.90;49.42;;;-2.30;99.90;;;;;;5096629;28;25123;-88
2022/12/17 18:46:38;;;;;;;85.82;48.38;;;-2.20;99.90;;;;;;5097482;28;20476;-88
2022/12/17 18:49:07;;;;;;;95.38;52.40;;;-2.30;99.90;;;;;;5108880;28;20450;-87
2022/12/17 18:51:34;;;;;;;86.97;50.72;;;-2.40;99.90;;;;;;5081047;28;20400;-91
2022/12/17 18:54:02;;;;;;;84.63;48.83;;;-2.40;99.90;;;;;;5116464;27;20416;-86
2022/12/17 18:56:28;;;;;;;83.82;48.47;;;-2.30;99.90;;;;;;5108911;28;20392;-83
2022/12/17 18:58:55;;;;;;;85.50;48.53;;;-2.30;99.90;;;;;;5106603;28;20459;-85
2022/12/17 19:01:33;;;;;;;86.63;51.25;;;-2.40;99.90;;;;;;5094361;27;21283;-82
2022/12/17 19:04:04;;;;;;;90.00;48.75;;;-2.50;99.90;;;;;;5090828;28;20504;-83
2022/12/17 19:06:31;;;;;;;82.82;47.97;;;-2.40;99.90;;;;;;5102995;28;20461;-83
2022/12/17 19:08:57;;;;;;;82.03;46.47;;;-2.30;99.90;;;;;;5107761;28;20503;-82
2022/12/17 19:11:23;;;;;;;84.67;48.33;;;-2.30;99.90;;;;;;5090193;28;20481;-86
2022/12/17 19:13:50;;;;;;;83.40;47.58;;;-2.50;99.90;;;;;;5100964;28;20469;-84
2022/12/17 19:16:24;;;;;;;80.82;47.30;;;-2.30;99.90;;;;;;5111053;28;20408;-82
2022/12/17 19:18:52;;;;;;;86.63;48.63;;;-2.30;99.90;;;;;;5107587;28;20439;-84
2022/12/17 19:21:18;;;;;;;84.00;49.63;;;-2.50;99.90;;;;;;5109411;28;20449;-80
2022/12/17 19:23:43;;;;;;;83.87;48.43;;;-2.60;99.90;;;;;;5092172;28;20410;-82
2022/12/17 19:26:13;;;;;;;88.28;49.47;;;-2.50;99.90;;;;;;5095067;28;20427;-83
2022/12/17 19:28:48;;;;;;;84.50;47.45;;;-2.40;99.90;;;;;;5102454;28;20414;-85
2022/12/17 19:31:15;;;;;;;84.90;49.03;;;-2.60;99.90;;;;;;5072227;28;25097;-81
2022/12/17 19:33:41;;;;;;;80.38;45.95;;;-2.50;99.90;;;;;;5089464;28;20422;-84
2022/12/17 19:36:11;;;;;;;79.85;46.10;;;-2.40;99.90;;;;;;5141860;27;20481;-83
2022/12/17 19:38:37;;;;;;;82.22;48.28;;;-2.60;99.90;;;;;;5110921;28;20396;-84
2022/12/17 19:41:05;;;;;;;79.93;45.93;;;-2.40;99.90;;;;;;5111844;28;20928;-85
2022/12/17 19:43:30;;;;;;;81.20;46.38;;;-2.30;99.90;;;;;;5118479;28;20427;-82
2022/12/17 19:46:18;;;;;;;84.68;47.35;;;-2.50;99.90;;;;;;5114127;28;20485;-82
2022/12/17 19:48:45;;;;;;;82.45;50.60;;;-2.50;99.90;;;;;;5100093;28;20907;-87
2022/12/17 19:51:13;;;;;;;84.28;49.50;;;-2.50;99.90;;;;;;5090341;28;20488;-85
2022/12/17 19:53:42;;;;;;;82.88;46.30;;;-2.50;99.90;;;;;;5071698;28;20432;-83
2022/12/17 19:56:20;;;;;;;85.63;46.47;;;-2.40;99.90;;;;;;5090361;28;20487;-84
2022/12/17 19:58:51;;;;;;;84.20;47.17;;;-2.40;99.90;;;;;;5071885;28;20415;-84
2022/12/17 20:01:25;;;;;;;84.50;48.25;;;-2.30;99.90;;;;;;5090018;28;20472;-86
2022/12/17 20:03:51;;;;;;;87.68;48.88;;;-2.40;99.90;;;;;;5094494;28;20443;-82
2022/12/17 20:06:19;;;;;;;83.78;48.13;;;-2.50;99.90;;;;;;5107363;28;20413;-82
2022/12/17 20:08:45;;;;;;;80.97;46.97;;;-2.40;99.90;;;;;;5090853;28;20405;-86
2022/12/17 20:11:32;;;;;;;74.23;45.97;;;-2.40;99.90;;;;;;5057459;28;20426;-82
2022/12/17 20:13:58;;;;;;;81.80;48.78;;;-2.30;99.90;;;;;;5106579;28;20756;-83
2022/12/17 20:16:25;;;;;;;78.28;47.20;;;-2.40;99.90;;;;;;5097939;28;20440;-84
2022/12/17 20:18:51;;;;;;;83.00;49.42;;;-2.50;99.90;;;;;;5075424;28;20406;-84
2022/12/17 20:21:17;;;;;;;87.30;49.03;;;-2.40;99.90;;;;;;5107425;28;20444;-84
2022/12/17 20:23:47;;;;;;;82.07;47.45;;;-2.30;99.90;;;;;;5105905;28;20443;-85
2022/12/17 20:26:14;;;;;;;80.18;46.50;;;-2.50;99.90;;;;;;5094193;28;20434;-83
2022/12/17 20:28:39;;;;;;;79.30;48.47;;;-2.40;99.90;;;;;;5111288;28;20479;-84
2022/12/17 20:31:06;;;;;;;80.75;48.72;;;-2.60;99.90;;;;;;5109495;28;20965;-82
2022/12/17 20:33:32;;;;;;;77.10;45.60;;;-2.40;99.90;;;;;;5109408;28;20439;-84
2022/12/17 20:36:05;;;;;;;76.90;44.05;;;-2.60;99.90;;;;;;5090463;28;20414;-83
2022/12/17 20:38:31;;;;;;;75.75;47.15;;;-2.30;99.90;;;;;;5122136;27;20416;-83
2022/12/17 20:40:57;;;;;;;78.68;47.10;;;-2.50;99.90;;;;;;5108708;28;20461;-82
2022/12/17 20:43:23;;;;;;;76.75;45.55;;;-2.50;99.90;;;;;;5095243;28;20421;-83
2022/12/17 20:45:50;;;;;;;77.05;47.35;;;-2.50;99.90;;;;;;5088819;28;21553;-82
2022/12/17 20:48:16;;;;;;;79.78;47.10;;;-2.60;99.90;;;;;;5089080;28;20429;-83
2022/12/17 20:50:43;;;;;;;73.60;43.65;;;-2.60;99.90;;;;;;5087589;28;20433;-81
2022/12/17 20:53:09;;;;;;;76.13;46.15;;;-2.50;99.90;;;;;;5070717;28;20418;-83
2022/12/17 20:55:35;;;;;;;77.18;46.28;;;-2.40;99.90;;;;;;5088274;28;20409;-84
2022/12/17 20:58:01;;;;;;;78.40;47.35;;;-2.40;99.90;;;;;;5088371;28;20406;-83
2022/12/17 21:00:27;;;;;;;76.87;45.90;;;-2.50;99.90;;;;;;5097890;28;20419;-82
2022/12/17 21:02:52;;;;;;;76.05;48.90;;;-2.50;99.90;;;;;;5110651;28;20484;-84
2022/12/17 21:05:18;;;;;;;77.13;46.97;;;-2.60;99.90;;;;;;5095261;28;20461;-82
2022/12/17 21:07:44;;;;;;;81.63;48.95;;;-2.60;99.90;;;;;;5074700;28;20413;-80
2022/12/17 21:10:11;;;;;;;72.80;45.13;;;-2.50;99.90;;;;;;5092766;28;20433;-83
2022/12/17 21:15:21;;;;;;;80.50;46.70;;;-2.70;99.90;;;;;;5080065;28;20460;-82
2022/12/17 21:17:47;;;;;;;75.53;46.28;;;-2.60;99.90;;;;;;5113427;28;20826;-82
2022/12/17 21:20:13;;;;;;;72.28;46.75;;;-2.50;99.90;;;;;;5112055;28;20443;-82
2022/12/17 21:22:39;;;;;;;75.95;48.47;;;-2.60;99.90;;;;;;5112949;28;20455;-80
2022/12/17 21:25:06;;;;;;;80.18;48.40;;;-2.70;99.90;;;;;;5112722;28;20727;-82
2022/12/17 21:27:33;;;;;;;76.88;45.47;;;-2.60;99.90;;;;;;5113454;28;20495;-81
2022/12/17 21:29:58;;;;;;;77.32;48.28;;;-2.60;99.90;;;;;;5115044;28;20777;-82
2022/12/17 21:32:24;;;;;;;79.30;46.67;;;-2.50;99.90;;;;;;5095030;28;20497;-84
2022/12/17 21:34:50;;;;;;;79.20;48.73;;;-2.70;99.90;;;;;;5077385;28;20477;-82
2022/12/17 21:37:15;;;;;;;78.22;47.38;;;-2.70;99.90;;;;;;5094698;28;20426;-81
2022/12/17 21:39:41;;;;;;;75.70;48.38;;;-2.40;99.90;;;;;;5112114;28;20455;-83
2022/12/17 21:44:51;;;;;;;74.37;45.53;;;-2.70;99.90;;;;;;5112081;28;20903;-81
2022/12/17 21:47:16;;;;;;;80.43;47.73;;;-2.60;99.90;;;;;;5111884;28;20424;-82
2022/12/17 21:49:42;;;;;;;79.38;48.53;;;-2.70;99.90;;;;;;5110640;28;20404;-81
2022/12/17 21:52:08;;;;;;;77.55;48.92;;;-2.70;99.90;;;;;;5100837;28;20855;-83
2022/12/17 21:54:33;;;;;;;76.07;48.60;;;-2.60;99.90;;;;;;5090912;28;20785;-81
2022/12/17 21:56:59;;;;;;;76.60;46.27;;;-2.60;99.90;;;;;;5106873;28;20431;-83
2022/12/17 21:59:25;;;;;;;78.80;47.73;;;-2.60;99.90;;;;;;5097125;28;20772;-83
2022/12/17 22:01:52;;;;;;;75.83;45.03;;;-2.60;99.90;;;;;;5111744;28;20456;-81
2022/12/17 22:04:18;;;;;;;77.70;46.78;;;-2.60;99.90;;;;;;5111019;28;20476;-80
2022/12/17 22:06:43;;;;;;;79.37;48.77;;;-2.80;99.90;;;;;;5111866;28;20591;-83
2022/12/17 22:09:09;;;;;;;76.60;47.33;;;-2.50;99.90;;;;;;5107088;28;20467;-83
2022/12/17 22:11:35;;;;;;;77.90;47.97;;;-2.70;99.90;;;;;;5089781;28;20420;-82
2022/12/17 22:14:01;;;;;;;80.13;48.15;;;-2.50;99.90;;;;;;5109401;28;20501;-82
2022/12/17 22:16:41;;;;;;;86.03;51.42;;;-2.80;99.90;;;;;;5111616;28;20412;-82
2022/12/17 22:19:11;;;;;;;75.90;46.85;;;-2.70;99.90;;;;;;5110486;28;20817;-84
2022/12/17 22:21:39;;;;;;;77.45;44.65;;;-2.70;99.90;;;;;;5110741;28;20534;-82
2022/12/17 22:24:06;;;;;;;77.30;45.90;;;-2.60;99.90;;;;;;5108076;28;20917;-76
2022/12/17 22:26:32;;;;;;;73.72;44.15;;;-2.70;99.90;;;;;;5103490;27;20871;-82
2022/12/17 22:28:59;;;;;;;70.00;44.70;;;-2.70;99.90;;;;;;5093520;28;20414;-81
2022/12/17 22:34:11;;;;;;;74.20;46.80;;;-2.50;99.90;;;;;;5090459;28;20829;-80
2022/12/17 22:36:37;;;;;;;75.68;45.67;;;-2.70;99.90;;;;;;5072754;28;20484;-81
2022/12/17 22:39:06;;;;;;;72.23;46.60;;;-2.20;99.90;;;;;;5089834;28;20406;-82
2022/12/17 22:44:16;;;;;;;74.75;44.08;;;-2.60;99.90;;;;;;5102729;28;20424;-80
2022/12/17 22:46:42;;;;;;;76.35;44.95;;;-2.60;99.90;;;;;;5102069;28;20410;-81
2022/12/17 22:49:08;;;;;;;77.63;46.00;;;-2.50;99.90;;;;;;5091816;28;20447;-81
2022/12/17 22:51:34;;;;;;;77.07;47.22;;;-2.70;99.90;;;;;;5073935;28;20768;-83
2022/12/17 22:54:01;;;;;;;71.25;44.03;;;-2.60;99.90;;;;;;5099162;28;20408;-82
2022/12/17 22:56:26;;;;;;;71.90;45.97;;;-2.80;99.90;;;;;;5111709;28;20428;-82
2022/12/17 22:58:52;;;;;;;77.70;47.22;;;-2.60;99.90;;;;;;5094156;28;20439;-83
2022/12/17 23:01:18;;;;;;;74.43;45.88;;;-2.60;99.90;;;;;;5099086;28;20426;-82
2022/12/17 23:03:44;;;;;;;70.57;42.60;;;-2.80;99.90;;;;;;5098136;28;20421;-80
2022/12/17 23:06:15;;;;;;;74.88;45.60;;;-2.70;99.90;;;;;;5099083;28;20426;-82
2022/12/17 23:08:41;;;;;;;80.35;48.65;;;-2.60;99.90;;;;;;5100561;27;20926;-82
2022/12/17 23:11:17;;;;;;;74.13;45.67;;;-2.70;99.90;;;;;;5084194;28;20430;-80
2022/12/17 23:13:44;;;;;;;74.20;44.85;;;-2.90;99.90;;;;;;5098599;28;20457;-81
2022/12/17 23:16:12;;;;;;;76.07;44.17;;;-2.80;99.90;;;;;;5111522;28;20415;-81
2022/12/17 23:18:39;;;;;;;75.18;46.97;;;-2.50;99.90;;;;;;5083546;28;21104;-83
2022/12/17 23:21:11;;;;;;;76.25;46.83;;;-2.70;99.90;;;;;;5085997;28;20473;-81
2022/12/17 23:23:36;;;;;;;80.13;47.00;;;-2.60;99.90;;;;;;5082015;28;20424;-80
2022/12/17 23:26:13;;;;;;;86.40;49.40;;;-2.70;99.90;;;;;;5073014;28;20404;-81
2022/12/17 23:28:39;;;;;;;72.93;47.00;;;-2.20;99.90;;;;;;5112056;28;20416;-81
2022/12/17 23:31:17;;;;;;;81.47;49.40;;;-2.60;99.90;;;;;;5109760;28;20470;-82
2022/12/17 23:33:44;;;;;;;79.95;48.67;;;-2.80;99.90;;;;;;5107859;28;20498;-81
2022/12/17 23:36:20;;;;;;;75.47;47.00;;;-2.70;99.90;;;;;;5099151;28;20418;-83
2022/12/17 23:38:47;;;;;;;79.45;48.83;;;-2.70;99.90;;;;;;5090345;28;25136;-80
2022/12/17 23:41:15;;;;;;;78.43;47.88;;;-2.80;99.90;;;;;;5089571;28;20429;-81
2022/12/17 23:43:41;;;;;;;81.28;48.10;;;-2.90;99.90;;;;;;5104658;28;20428;-81
2022/12/17 23:46:08;;;;;;;81.47;47.85;;;-2.60;99.90;;;;;;5089814;28;20998;-81
2022/12/17 23:48:38;;;;;;;82.05;47.75;;;-2.70;99.90;;;;;;5088439;28;20426;-81
2022/12/17 23:51:04;;;;;;;86.00;51.80;;;-2.90;99.90;;;;;;5089585;28;20413;-81
2022/12/17 23:53:31;;;;;;;89.22;51.10;;;-2.70;99.90;;;;;;5091503;28;20813;-80
2022/12/17 23:56:08;;;;;;;83.45;46.38;;;-2.80;99.90;;;;;;5089703;28;20401;-80
2022/12/17 23:58:35;;;;;;;87.72;51.17;;;-2.70;99.90;;;;;;5103439;28;20408;-80
